createdAt,value
2023-03-17T00:01:51.090Z,2.40
2023-03-17T00:04:19.542Z,2.60
2023-03-17T00:06:47.475Z,2.07
2023-03-17T00:09:16.967Z,2.30
2023-03-17T00:11:45.378Z,2.40
2023-03-17T00:14:12.926Z,2.20
2023-03-17T00:16:44.605Z,2.50
2023-03-17T00:19:18.010Z,2.73
2023-03-17T00:21:46.872Z,2.30
2023-03-17T00:24:15.181Z,2.43
2023-03-17T00:26:43.168Z,2.53
2023-03-17T00:29:10.264Z,2.40
2023-03-17T00:31:38.933Z,2.40
2023-03-17T00:34:06.456Z,2.20
2023-03-17T00:36:34.372Z,2.20
2023-03-17T00:39:01.410Z,2.40
2023-03-17T00:41:29.316Z,2.50
2023-03-17T00:43:57.084Z,2.27
2023-03-17T00:46:28.862Z,2.20
2023-03-17T00:48:56.035Z,2.50
2023-03-17T00:51:23.378Z,2.47
2023-03-17T00:53:50.804Z,2.43
2023-03-17T00:56:21.100Z,2.40
2023-03-17T00:58:54.923Z,2.80
2023-03-17T01:01:21.807Z,2.37
2023-03-17T01:03:48.619Z,2.30
2023-03-17T01:06:16.599Z,2.20
2023-03-17T01:08:44.701Z,2.30
2023-03-17T01:11:19.967Z,2.37
2023-03-17T01:13:46.883Z,2.20
2023-03-17T01:16:15.404Z,2.20
2023-03-17T01:18:43.349Z,2.47
2023-03-17T01:21:10.153Z,2.17
2023-03-17T01:23:37.823Z,2.10
2023-03-17T01:26:05.442Z,2.30
2023-03-17T01:28:32.511Z,2.53
2023-03-17T01:30:59.423Z,2.20
2023-03-17T01:33:26.546Z,2.07
2023-03-17T01:35:53.311Z,2.30
2023-03-17T01:38:20.378Z,2.57
2023-03-17T01:40:51.520Z,2.27
2023-03-17T01:43:27.648Z,2.43
2023-03-17T01:46:20.840Z,2.40
2023-03-17T01:49:32.975Z,2.40
2023-03-17T01:52:09.040Z,2.17
2023-03-17T01:54:50.273Z,2.57
2023-03-17T01:57:32.763Z,2.40
2023-03-17T02:00:13.049Z,2.47
2023-03-17T02:02:45.193Z,2.30
2023-03-17T02:05:16.933Z,2.33
2023-03-17T02:07:45.005Z,2.40
2023-03-17T02:10:15.794Z,2.20
2023-03-17T02:12:45.509Z,2.40
2023-03-17T02:15:12.790Z,2.40
2023-03-17T02:17:39.698Z,2.50
2023-03-17T02:20:21.226Z,2.47
2023-03-17T02:22:54.696Z,2.60
2023-03-17T02:25:24.798Z,2.27
2023-03-17T02:28:01.546Z,2.60
2023-03-17T02:30:28.878Z,2.47
2023-03-17T02:32:55.800Z,2.43
2023-03-17T02:35:23.303Z,2.33
2023-03-17T02:37:50.164Z,2.30
2023-03-17T02:40:17.374Z,2.47
2023-03-17T02:42:44.411Z,2.67
2023-03-17T02:45:12.751Z,2.70
2023-03-17T02:47:41.312Z,2.37
2023-03-17T02:50:18.381Z,2.40
2023-03-17T02:52:45.156Z,2.40
2023-03-17T02:55:11.845Z,2.40
2023-03-17T02:57:38.543Z,2.30
2023-03-17T03:00:06.144Z,2.10
2023-03-17T03:02:33.217Z,2.43
2023-03-17T03:04:59.990Z,2.27
2023-03-17T03:07:26.752Z,2.63
2023-03-17T03:09:53.471Z,2.63
2023-03-17T03:12:20.323Z,2.47
2023-03-17T03:14:47.539Z,2.60
2023-03-17T03:17:14.337Z,2.33
2023-03-17T03:19:41.069Z,2.30
2023-03-17T03:22:08.726Z,2.43
2023-03-17T03:24:36.222Z,2.23
2023-03-17T03:27:03.035Z,2.73
2023-03-17T03:29:29.942Z,2.07
2023-03-17T03:31:56.928Z,1.97
2023-03-17T03:34:23.637Z,2.30
2023-03-17T03:36:50.507Z,2.23
2023-03-17T03:39:17.221Z,2.47
2023-03-17T03:41:43.962Z,2.30
2023-03-17T03:44:10.949Z,2.40
2023-03-17T03:46:37.726Z,2.20
2023-03-17T03:49:04.575Z,2.40
2023-03-17T03:51:31.282Z,2.10
2023-03-17T03:53:58.026Z,2.30
2023-03-17T03:56:24.793Z,2.20
2023-03-17T03:58:51.658Z,2.13
2023-03-17T04:01:18.765Z,2.30
2023-03-17T04:03:47.220Z,1.87
2023-03-17T04:06:14.148Z,2.20
2023-03-17T04:08:40.899Z,2.43
2023-03-17T04:11:08.630Z,2.20
2023-03-17T04:13:36.427Z,2.20
2023-03-17T04:16:03.350Z,2.10
2023-03-17T04:18:31.508Z,2.10
2023-03-17T04:20:58.309Z,2.50
2023-03-17T04:23:25.292Z,2.13
2023-03-17T04:25:53.320Z,2.40
2023-03-17T04:28:20.877Z,2.00
2023-03-17T04:30:47.695Z,2.23
2023-03-17T04:33:14.646Z,2.13
2023-03-17T04:35:41.415Z,2.30
2023-03-17T04:38:12.823Z,2.73
2023-03-17T04:40:39.780Z,2.63
2023-03-17T04:43:06.512Z,2.97
2023-03-17T04:45:33.621Z,3.10
2023-03-17T04:48:00.512Z,2.60
2023-03-17T04:50:27.310Z,2.80
2023-03-17T04:52:54.053Z,3.00
2023-03-17T04:55:21.077Z,2.80
2023-03-17T04:57:48.146Z,2.87
2023-03-17T05:00:15.696Z,2.70
2023-03-17T05:02:42.926Z,2.40
2023-03-17T05:05:09.968Z,2.67
2023-03-17T05:07:36.704Z,2.80
2023-03-17T05:10:04.438Z,2.30
2023-03-17T05:12:31.503Z,2.57
2023-03-17T05:14:58.477Z,2.40
2023-03-17T05:17:25.306Z,2.77
2023-03-17T05:19:52.072Z,2.60
2023-03-17T05:22:19.722Z,2.67
2023-03-17T05:24:47.457Z,2.77
2023-03-17T05:27:14.187Z,2.90
2023-03-17T05:29:40.904Z,3.00
2023-03-17T05:32:07.670Z,2.40
2023-03-17T05:34:34.567Z,2.97
2023-03-17T05:37:01.319Z,2.40
2023-03-17T05:39:28.490Z,2.30
2023-03-17T05:41:55.351Z,2.60
2023-03-17T05:44:22.092Z,2.43
2023-03-17T05:46:48.842Z,4.30
2023-03-17T05:49:15.890Z,6.00
2023-03-17T05:51:42.600Z,6.10
2023-03-17T05:54:09.349Z,6.33
2023-03-17T05:56:36.454Z,6.53
2023-03-17T05:59:04.457Z,6.13
2023-03-17T06:01:31.367Z,6.23
2023-03-17T06:03:58.349Z,5.30
2023-03-17T06:06:25.815Z,4.37
2023-03-17T06:08:52.845Z,4.20
2023-03-17T06:11:21.366Z,3.80
2023-03-17T06:13:48.733Z,3.23
2023-03-17T06:16:15.944Z,2.90
2023-03-17T06:18:43.038Z,3.03
2023-03-17T06:21:09.947Z,2.97
2023-03-17T06:23:36.836Z,2.60
2023-03-17T06:26:04.313Z,2.87
2023-03-17T06:28:31.656Z,2.33
2023-03-17T06:30:58.947Z,2.73
2023-03-17T06:33:26.277Z,2.30
2023-03-17T06:35:53.262Z,2.40
2023-03-17T06:38:20.722Z,2.43
2023-03-17T06:40:47.817Z,2.60
2023-03-17T06:43:14.541Z,2.50
2023-03-17T06:45:41.630Z,2.10
2023-03-17T06:48:08.356Z,2.20
2023-03-17T06:50:35.209Z,2.33
2023-03-17T06:53:01.954Z,2.23
2023-03-17T06:55:29.156Z,2.10
2023-03-17T06:57:56.245Z,2.63
2023-03-17T07:00:23.696Z,2.47
2023-03-17T07:02:51.147Z,2.27
2023-03-17T07:05:18.472Z,2.40
2023-03-17T07:07:46.093Z,2.50
2023-03-17T07:10:15.606Z,2.17
2023-03-17T07:12:42.610Z,2.73
2023-03-17T07:15:12.368Z,2.20
2023-03-17T07:17:39.293Z,2.27
2023-03-17T07:20:07.283Z,2.47
2023-03-17T07:22:34.050Z,2.40
2023-03-17T07:25:00.834Z,2.33
2023-03-17T07:27:27.933Z,2.33
2023-03-17T07:29:54.738Z,2.50
2023-03-17T07:32:21.501Z,2.33
2023-03-17T07:34:48.378Z,2.47
2023-03-17T07:37:15.247Z,2.50
2023-03-17T07:39:42.615Z,2.83
2023-03-17T07:42:15.201Z,2.70
2023-03-17T07:44:42.610Z,2.63
2023-03-17T07:47:11.386Z,2.33
2023-03-17T07:49:42.079Z,2.20
2023-03-17T07:52:10.995Z,2.57
2023-03-17T07:54:42.254Z,2.23
2023-03-17T07:57:10.131Z,2.50
2023-03-17T07:59:38.145Z,2.30
2023-03-17T08:02:05.360Z,2.07
2023-03-17T08:04:32.137Z,2.60
2023-03-17T08:06:58.895Z,2.37
2023-03-17T08:09:25.731Z,2.30
2023-03-17T08:11:52.832Z,2.50
2023-03-17T08:14:19.630Z,2.33
2023-03-17T08:16:46.466Z,2.60
2023-03-17T08:19:13.290Z,2.97
2023-03-17T08:21:40.198Z,2.87
2023-03-17T08:24:07.163Z,2.63
2023-03-17T08:26:34.227Z,2.70
2023-03-17T08:29:01.313Z,3.07
2023-03-17T08:31:28.426Z,2.90
2023-03-17T08:33:57.036Z,2.83
2023-03-17T08:36:25.997Z,2.60
2023-03-17T08:38:53.088Z,2.60
2023-03-17T08:41:24.570Z,2.80
2023-03-17T08:43:51.628Z,3.20
2023-03-17T08:46:23.526Z,2.90
2023-03-17T08:48:51.947Z,2.60
2023-03-17T08:51:23.698Z,3.07
2023-03-17T08:53:53.061Z,2.73
2023-03-17T08:56:20.326Z,2.97
2023-03-17T08:58:47.704Z,2.50
2023-03-17T09:01:16.120Z,2.60
2023-03-17T09:03:45.139Z,2.67
2023-03-17T09:06:13.416Z,2.83
2023-03-17T09:08:44.841Z,2.90
2023-03-17T09:11:16.466Z,2.80
2023-03-17T09:13:44.196Z,2.97
2023-03-17T09:16:10.995Z,2.90
2023-03-17T09:18:47.277Z,3.27
2023-03-17T09:21:15.584Z,3.13
2023-03-17T09:23:42.796Z,3.10
2023-03-17T09:26:10.906Z,2.80
2023-03-17T09:28:38.169Z,3.10
2023-03-17T09:31:11.282Z,2.80
2023-03-17T09:33:41.663Z,2.80
2023-03-17T09:36:10.731Z,2.53
2023-03-17T09:38:38.433Z,2.53
2023-03-17T09:41:20.663Z,2.27
2023-03-17T09:44:25.020Z,2.40
2023-03-17T09:47:18.316Z,2.17
2023-03-17T09:49:53.911Z,2.70
2023-03-17T09:52:29.087Z,2.20
2023-03-17T09:54:57.545Z,2.27
2023-03-17T09:57:37.975Z,2.20
2023-03-17T10:00:15.308Z,1.83
2023-03-17T10:02:43.202Z,2.30
2023-03-17T10:05:22.301Z,2.27
2023-03-17T10:07:58.304Z,1.90
2023-03-17T10:11:07.096Z,1.73
2023-03-17T10:14:18.091Z,2.00
2023-03-17T10:17:25.519Z,1.97
2023-03-17T10:20:02.334Z,2.03
2023-03-17T10:22:46.038Z,1.60
2023-03-17T10:25:30.117Z,1.50
2023-03-17T10:28:20.058Z,1.77
2023-03-17T10:30:46.802Z,1.40
2023-03-17T10:33:13.536Z,1.20
2023-03-17T10:35:41.205Z,1.50
2023-03-17T10:38:24.010Z,1.77
2023-03-17T10:41:07.062Z,1.47
2023-03-17T10:43:53.541Z,1.47
2023-03-17T10:46:24.260Z,1.43
2023-03-17T10:49:02.116Z,1.30
2023-03-17T10:51:36.716Z,1.40
2023-03-17T10:54:17.442Z,1.60
2023-03-17T10:56:50.197Z,1.50
2023-03-17T10:59:28.678Z,1.50
2023-03-17T11:02:18.663Z,1.40
2023-03-17T11:04:45.499Z,1.50
2023-03-17T11:07:27.557Z,1.50
2023-03-17T11:10:02.634Z,1.40
2023-03-17T11:12:39.229Z,1.40
2023-03-17T11:15:13.009Z,1.50
2023-03-17T11:17:55.901Z,1.40
2023-03-17T11:20:44.504Z,1.40
2023-03-17T11:23:40.532Z,1.60
2023-03-17T11:26:45.172Z,1.27
2023-03-17T11:29:29.934Z,1.30
2023-03-17T11:32:21.287Z,1.20
2023-03-17T11:35:16.574Z,1.20
2023-03-17T11:38:20.904Z,1.20
2023-03-17T11:41:41.582Z,1.20
2023-03-17T11:44:40.198Z,1.30
2023-03-17T11:47:48.556Z,1.30
2023-03-17T11:50:49.689Z,1.40
2023-03-17T11:53:26.002Z,1.30
2023-03-17T11:56:18.939Z,1.40
2023-03-17T11:59:01.594Z,1.30
2023-03-17T12:01:54.709Z,1.30
2023-03-17T12:04:43.274Z,1.17
2023-03-17T12:07:22.235Z,1.30
2023-03-17T12:10:18.482Z,1.20
2023-03-17T12:12:56.290Z,1.30
2023-03-17T12:15:32.499Z,1.27
2023-03-17T12:18:32.754Z,1.10
2023-03-17T12:21:15.146Z,1.47
2023-03-17T12:23:56.941Z,1.00
2023-03-17T12:26:48.099Z,1.23
2023-03-17T12:29:43.168Z,1.20
2023-03-17T12:32:26.284Z,0.90
2023-03-17T12:34:58.675Z,1.40
2023-03-17T12:37:29.924Z,1.00
2023-03-17T12:40:07.081Z,1.00
2023-03-17T12:43:18.831Z,1.07
2023-03-17T12:46:06.252Z,1.33
2023-03-17T12:49:08.752Z,0.93
2023-03-17T12:52:04.153Z,1.20
2023-03-17T12:54:36.362Z,1.17
2023-03-17T12:57:29.475Z,1.00
2023-03-17T13:00:17.035Z,0.97
2023-03-17T13:02:51.013Z,1.10
2023-03-17T13:05:30.032Z,1.30
2023-03-17T13:08:02.236Z,1.47
2023-03-17T13:10:48.731Z,1.07
2023-03-17T13:13:54.876Z,1.20
2023-03-17T13:16:42.232Z,1.00
2023-03-17T13:19:24.115Z,1.30
2023-03-17T13:22:00.356Z,1.00
2023-03-17T13:24:47.272Z,1.47
2023-03-17T13:27:33.959Z,1.23
2023-03-17T13:30:25.706Z,0.90
2023-03-17T13:33:11.053Z,1.10
2023-03-17T13:35:46.528Z,1.47
2023-03-17T13:38:41.051Z,1.00
2023-03-17T13:41:37.781Z,1.00
2023-03-17T13:44:34.880Z,1.20
2023-03-17T13:47:34.991Z,1.03
2023-03-17T13:50:14.902Z,0.90
2023-03-17T13:53:01.641Z,1.20
2023-03-17T13:55:42.648Z,1.10
2023-03-17T13:58:11.691Z,1.10
2023-03-17T14:00:44.246Z,1.10
2023-03-17T14:03:29.041Z,1.23
2023-03-17T14:05:56.764Z,1.23
2023-03-17T14:08:32.112Z,1.30
2023-03-17T14:11:03.583Z,1.17
2023-03-17T14:13:56.007Z,1.30
2023-03-17T14:16:43.031Z,1.10
2023-03-17T14:19:28.162Z,1.10
2023-03-17T14:22:04.212Z,1.27
2023-03-17T14:24:33.609Z,1.13
2023-03-17T14:27:07.937Z,1.20
2023-03-17T14:29:34.951Z,1.30
2023-03-17T14:32:13.658Z,1.23
2023-03-17T14:34:58.567Z,1.00
2023-03-17T14:37:27.400Z,1.00
2023-03-17T14:39:57.998Z,1.00
2023-03-17T14:42:31.320Z,1.40
2023-03-17T14:45:06.001Z,1.10
2023-03-17T14:47:43.141Z,1.37
2023-03-17T14:50:24.685Z,1.00
2023-03-17T14:52:51.561Z,1.40
2023-03-17T14:55:19.657Z,1.17
2023-03-17T14:57:52.402Z,1.07
2023-03-17T15:01:16.181Z,1.40
2023-03-17T15:04:03.826Z,1.27
2023-03-17T15:06:31.215Z,1.20
2023-03-17T15:09:04.490Z,1.30
2023-03-17T15:11:42.836Z,1.40
2023-03-17T15:14:38.848Z,1.30
2023-03-17T15:17:18.427Z,1.30
2023-03-17T15:19:52.524Z,1.50
2023-03-17T15:22:55.910Z,1.20
2023-03-17T15:25:39.298Z,1.20
2023-03-17T15:28:15.492Z,1.67
2023-03-17T15:30:47.623Z,1.40
2023-03-17T15:33:28.317Z,1.40
2023-03-17T15:36:01.822Z,1.40
2023-03-17T15:38:29.194Z,1.52
2023-03-17T15:40:56.842Z,1.27
2023-03-17T15:43:23.758Z,1.40
2023-03-17T15:45:59.699Z,1.50
2023-03-17T15:48:31.294Z,1.33
2023-03-17T15:51:01.281Z,1.38
2023-03-17T15:53:28.859Z,1.57
2023-03-17T15:55:55.556Z,1.40
2023-03-17T15:58:22.277Z,1.30
2023-03-17T16:00:56.919Z,1.33
2023-03-17T16:03:34.226Z,1.20
2023-03-17T16:06:13.537Z,1.43
2023-03-17T16:08:42.603Z,1.30
2023-03-17T16:11:28.297Z,1.33
2023-03-17T16:13:57.585Z,1.27
2023-03-17T16:16:37.136Z,1.30
2023-03-17T16:19:16.719Z,1.30
2023-03-17T16:21:43.768Z,1.50
2023-03-17T16:24:19.834Z,1.20
2023-03-17T16:26:46.589Z,1.30
2023-03-17T16:29:15.253Z,1.30
2023-03-17T16:31:46.158Z,1.00
2023-03-17T16:34:20.642Z,1.30
2023-03-17T16:36:48.641Z,1.40
2023-03-17T16:39:22.272Z,1.40
2023-03-17T16:41:50.251Z,1.67
2023-03-17T16:44:21.026Z,1.20
2023-03-17T16:46:48.333Z,1.33
2023-03-17T16:49:18.687Z,1.40
2023-03-17T16:51:45.520Z,1.37
2023-03-17T16:54:12.903Z,1.40
2023-03-17T16:56:41.278Z,1.30
2023-03-17T16:59:19.638Z,1.23
2023-03-17T17:01:46.597Z,1.20
2023-03-17T17:04:13.447Z,1.60
2023-03-17T17:06:40.173Z,1.30
2023-03-17T17:09:06.910Z,1.60
2023-03-17T17:11:33.688Z,1.33
2023-03-17T17:14:00.591Z,1.50
2023-03-17T17:16:31.927Z,1.63
2023-03-17T17:19:00.110Z,1.60
2023-03-17T17:21:27.721Z,1.60
2023-03-17T17:23:55.457Z,1.50
2023-03-17T17:26:22.913Z,1.60
2023-03-17T17:28:49.875Z,1.63
2023-03-17T17:31:16.756Z,1.70
2023-03-17T17:33:43.582Z,1.90
2023-03-17T17:36:17.126Z,1.80
2023-03-17T17:38:44.503Z,1.70
2023-03-17T17:41:12.436Z,1.90
2023-03-17T17:43:39.568Z,1.77
2023-03-17T17:46:22.562Z,1.90
2023-03-17T17:48:50.042Z,2.27
2023-03-17T17:51:16.902Z,2.30
2023-03-17T17:53:43.948Z,2.27
2023-03-17T17:56:16.660Z,2.40
2023-03-17T17:58:44.475Z,2.40
2023-03-17T18:01:14.284Z,2.80
2023-03-17T18:03:42.806Z,2.47
2023-03-17T18:06:10.134Z,2.80
2023-03-17T18:08:37.056Z,2.57
2023-03-17T18:11:04.123Z,2.67
2023-03-17T18:13:31.094Z,2.23
2023-03-17T18:15:58.348Z,2.37
2023-03-17T18:18:25.114Z,2.33
2023-03-17T18:20:53.726Z,2.00
2023-03-17T18:23:21.013Z,2.53
2023-03-17T18:25:47.803Z,2.27
2023-03-17T18:28:14.690Z,2.50
2023-03-17T18:30:43.257Z,2.43
2023-03-17T18:33:16.440Z,2.27
2023-03-17T18:35:47.041Z,2.43
2023-03-17T18:38:14.026Z,2.53
2023-03-17T18:40:42.153Z,2.50
2023-03-17T18:43:09.005Z,2.50
2023-03-17T18:45:35.831Z,3.00
2023-03-17T18:48:02.570Z,2.80
2023-03-17T18:50:29.589Z,3.67
2023-03-17T18:52:57.162Z,3.20
2023-03-17T18:55:24.105Z,3.60
2023-03-17T18:57:51.815Z,4.17
2023-03-17T19:00:18.940Z,4.17
2023-03-17T19:02:46.299Z,5.33
2023-03-17T19:05:14.254Z,5.57
2023-03-17T19:07:41.762Z,5.33
2023-03-17T19:10:10.879Z,5.53
2023-03-17T19:12:38.248Z,5.30
2023-03-17T19:15:07.328Z,4.53
2023-03-17T19:17:34.695Z,5.10
2023-03-17T19:20:01.556Z,5.00
2023-03-17T19:22:28.297Z,5.53
2023-03-17T19:24:55.284Z,4.90
2023-03-17T19:27:22.124Z,4.10
2023-03-17T19:29:48.916Z,3.97
2023-03-17T19:32:17.024Z,3.43
2023-03-17T19:34:44.091Z,3.27
2023-03-17T19:37:10.990Z,3.00
2023-03-17T19:39:37.832Z,2.73
2023-03-17T19:42:04.667Z,2.57
2023-03-17T19:44:31.535Z,2.40
2023-03-17T19:46:58.248Z,2.60
2023-03-17T19:49:24.955Z,2.17
2023-03-17T19:51:52.281Z,1.70
2023-03-17T19:54:23.391Z,2.00
2023-03-17T19:56:50.396Z,1.80
2023-03-17T19:59:17.466Z,2.00
2023-03-17T20:01:44.269Z,1.80
2023-03-17T20:04:14.077Z,2.00
2023-03-17T20:06:41.365Z,2.40
2023-03-17T20:09:08.864Z,2.50
2023-03-17T20:11:35.953Z,2.50
2023-03-17T20:14:03.512Z,2.47
2023-03-17T20:16:33.549Z,2.80
2023-03-17T20:19:01.240Z,2.70
2023-03-17T20:21:28.548Z,2.60
2023-03-17T20:23:56.185Z,2.30
2023-03-17T20:26:23.241Z,2.50
2023-03-17T20:28:50.031Z,2.43
2023-03-17T20:31:18.033Z,3.20
2023-03-17T20:33:44.839Z,3.10
2023-03-17T20:36:12.800Z,3.50
2023-03-17T20:38:40.528Z,3.70
2023-03-17T20:41:14.137Z,3.93
2023-03-17T20:43:41.621Z,4.57
2023-03-17T20:46:14.801Z,4.30
2023-03-17T20:48:41.575Z,3.83
2023-03-17T20:51:15.574Z,4.00
2023-03-17T20:53:48.147Z,3.70
2023-03-17T20:56:22.196Z,3.77
2023-03-17T20:58:50.625Z,3.30
2023-03-17T21:01:21.195Z,3.50
2023-03-17T21:03:49.136Z,2.60
2023-03-17T21:06:17.058Z,2.23
2023-03-17T21:08:46.284Z,1.93
2023-03-17T21:11:20.016Z,2.47
2023-03-17T21:13:47.532Z,2.70
2023-03-17T21:16:22.449Z,4.20
2023-03-17T21:18:49.786Z,6.13
2023-03-17T21:21:18.069Z,8.27
2023-03-17T21:23:45.625Z,8.60
2023-03-17T21:26:14.157Z,8.07
2023-03-17T21:28:41.967Z,8.30
2023-03-17T21:31:10.443Z,7.63
2023-03-17T21:33:37.292Z,7.70
2023-03-17T21:36:06.056Z,8.10
2023-03-17T21:38:32.885Z,7.27
2023-03-17T21:41:39.062Z,6.30
2023-03-17T21:44:06.820Z,6.30
2023-03-17T21:46:33.778Z,5.77
2023-03-17T21:49:01.355Z,5.50
2023-03-17T21:51:28.379Z,5.67
2023-03-17T21:53:55.971Z,5.10
2023-03-17T21:56:22.724Z,5.60
2023-03-17T21:58:50.158Z,5.33
2023-03-17T22:01:20.267Z,4.40
2023-03-17T22:03:47.859Z,4.70
2023-03-17T22:06:16.158Z,3.87
2023-03-17T22:08:43.031Z,3.13
2023-03-17T22:11:15.086Z,2.90
2023-03-17T22:13:43.128Z,2.70
2023-03-17T22:16:11.669Z,2.87
2023-03-17T22:18:39.287Z,3.37
2023-03-17T22:21:08.256Z,2.90
2023-03-17T22:23:40.950Z,2.70
2023-03-17T22:26:19.825Z,2.83
2023-03-17T22:28:49.263Z,2.90
2023-03-17T22:31:24.737Z,3.57
2023-03-17T22:33:55.081Z,2.90
2023-03-17T22:36:23.968Z,3.00
2023-03-17T22:38:50.720Z,3.00
2023-03-17T22:41:22.929Z,2.93
2023-03-17T22:43:50.686Z,2.70
2023-03-17T22:46:18.592Z,2.10
2023-03-17T22:48:49.161Z,2.50
2023-03-17T22:51:21.289Z,2.33
2023-03-17T22:53:49.192Z,2.40
2023-03-17T22:56:17.769Z,2.30
2023-03-17T22:58:45.744Z,2.23
2023-03-17T23:01:16.137Z,2.33
2023-03-17T23:03:44.067Z,2.00
2023-03-17T23:06:13.131Z,2.00
2023-03-17T23:08:42.631Z,2.20
2023-03-17T23:11:21.106Z,2.33
2023-03-17T23:13:48.764Z,2.80
2023-03-17T23:16:17.088Z,2.40
2023-03-17T23:18:46.646Z,2.10
2023-03-17T23:21:34.256Z,2.70
2023-03-17T23:24:01.928Z,2.10
2023-03-17T23:26:29.912Z,2.30
2023-03-17T23:28:56.641Z,2.60
2023-03-17T23:31:23.563Z,2.53
2023-03-17T23:33:51.188Z,2.33
2023-03-17T23:36:18.580Z,2.20
2023-03-17T23:38:46.031Z,2.20
2023-03-17T23:41:15.094Z,2.20
2023-03-17T23:43:42.555Z,2.53
2023-03-17T23:46:09.522Z,2.90
2023-03-17T23:48:37.671Z,2.40
2023-03-17T23:51:05.499Z,2.50
2023-03-17T23:53:32.808Z,2.50
2023-03-17T23:55:59.932Z,2.77
2023-03-17T23:58:27.444Z,2.80
